Time;durP1;ratioP1;P1;durP2;ratioP2;P2;SDS_P1;SDS_P2;PMS_P1;PMS_P2;Temp;Humidity;BMP_temperature;BMP_pressure;BME280_temperature;BME280_humidity;BME280_pressure;Samples;Min_cycle;Max_cycle;Signal;HPM_P1;HPM_P2
2022/05/14 00:00:48;;;;;;;3.65;1.95;;;;;;;;;;4151306;34;20119;-66
2022/05/14 00:32:48;;;;;;;4.95;2.00;;;;;;;;;;4544541;28;20493;-62
2022/05/14 00:35:14;;;;;;;3.47;1.80;;;;;;;;;;4161605;34;20147;-62
2022/05/14 00:37:40;;;;;;;2.72;1.75;;;;;;;;;;4163613;34;20091;-62
2022/05/14 00:40:30;;;;;;;4.47;1.95;;;;;;;;;;4162632;34;20138;-61
2022/05/14 00:42:56;;;;;;;4.82;1.90;;;;;;;;;;4163996;34;20130;-62
2022/05/14 00:45:22;;;;;;;1.98;1.50;;;;;;;;;;4163600;34;20115;-65
2022/05/14 00:47:53;;;;;;;2.00;1.65;;;;;;;;;;4163869;34;20142;-65
2022/05/14 00:50:31;;;;;;;2.03;1.62;;;;;;;;;;4163240;34;20087;-62
2022/05/14 00:53:02;;;;;;;4.65;1.85;;;;;;;;;;4163949;34;20238;-62
2022/05/14 00:55:28;;;;;;;4.05;1.77;;;;;;;;;;4163681;34;20107;-62
2022/05/14 00:57:55;;;;;;;2.45;1.70;;;;;;;;;;4163639;34;20468;-62
2022/05/14 01:00:22;;;;;;;2.12;1.60;;;;;;;;;;4163480;34;20106;-62
2022/05/14 01:02:49;;;;;;;1.90;1.70;;;;;;;;;;4150978;34;20134;-62
2022/05/14 01:05:17;;;;;;;2.78;1.50;;;;;;;;;;4150911;34;20193;-62
2022/05/14 01:07:43;;;;;;;4.10;1.50;;;;;;;;;;4139757;34;20591;-65
2022/05/14 01:10:11;;;;;;;3.72;2.08;;;;;;;;;;4163787;34;20102;-65
2022/05/14 01:12:42;;;;;;;2.70;2.00;;;;;;;;;;4150978;34;20207;-65
2022/05/14 01:15:14;;;;;;;3.28;1.60;;;;;;;;;;4150764;34;20574;-65
2022/05/14 01:17:40;;;;;;;4.15;1.85;;;;;;;;;;4151232;34;20103;-66
2022/05/14 01:20:07;;;;;;;3.95;1.75;;;;;;;;;;4163522;34;20122;-64
2022/05/14 01:22:42;;;;;;;4.95;2.00;;;;;;;;;;4150919;34;20551;-66
2022/05/14 01:28:03;;;;;;;3.95;1.65;;;;;;;;;;4163647;34;20588;-65
2022/05/14 01:30:29;;;;;;;4.37;2.05;;;;;;;;;;4163277;34;20555;-65
2022/05/14 01:33:05;;;;;;;5.25;2.62;;;;;;;;;;4150734;34;20122;-65
2022/05/14 01:35:35;;;;;;;3.20;1.40;;;;;;;;;;4163252;34;20126;-65
2022/05/14 01:38:01;;;;;;;7.47;1.70;;;;;;;;;;4163494;34;20122;-65
2022/05/14 01:40:29;;;;;;;4.20;1.58;;;;;;;;;;4163007;34;20150;-65
2022/05/14 01:42:54;;;;;;;4.65;1.42;;;;;;;;;;4150841;34;20106;-65
2022/05/14 01:45:20;;;;;;;2.12;1.80;;;;;;;;;;4150564;34;20201;-65
2022/05/14 01:47:47;;;;;;;5.40;1.60;;;;;;;;;;4163243;34;20134;-65
2022/05/14 01:50:13;;;;;;;3.75;2.08;;;;;;;;;;4163142;34;20103;-65
2022/05/14 01:52:39;;;;;;;2.85;1.70;;;;;;;;;;4163321;34;21066;-65
2022/05/14 01:55:05;;;;;;;4.85;1.73;;;;;;;;;;4163155;34;20126;-65
2022/05/14 01:57:32;;;;;;;4.93;1.83;;;;;;;;;;4163091;34;20122;-65
2022/05/14 01:59:58;;;;;;;4.82;2.05;;;;;;;;;;4150629;34;20114;-65
2022/05/14 02:02:23;;;;;;;7.87;2.22;;;;;;;;;;4162397;34;20540;-65
2022/05/14 02:04:49;;;;;;;3.47;1.90;;;;;;;;;;4162948;34;20129;-65
2022/05/14 02:07:15;;;;;;;9.07;2.55;;;;;;;;;;4163241;34;20226;-66
2022/05/14 02:09:41;;;;;;;2.20;1.60;;;;;;;;;;4163222;34;20101;-66
2022/05/14 02:12:08;;;;;;;5.53;1.90;;;;;;;;;;4163396;34;20133;-65
2022/05/14 02:14:34;;;;;;;4.00;1.70;;;;;;;;;;4162800;34;20107;-66
2022/05/14 02:17:00;;;;;;;6.10;1.90;;;;;;;;;;4162976;34;20134;-66
2022/05/14 02:19:26;;;;;;;3.58;1.80;;;;;;;;;;4163030;34;20943;-66
2022/05/14 02:21:52;;;;;;;4.62;1.77;;;;;;;;;;4162896;34;20742;-67
2022/05/14 02:24:17;;;;;;;2.33;1.45;;;;;;;;;;4150189;34;20110;-66
2022/05/14 02:26:43;;;;;;;5.57;2.03;;;;;;;;;;4162836;34;20221;-66
2022/05/14 02:29:09;;;;;;;4.50;1.87;;;;;;;;;;4162944;34;20535;-67
2022/05/14 02:31:35;;;;;;;3.40;1.62;;;;;;;;;;4162859;34;20530;-66
2022/05/14 02:34:01;;;;;;;2.53;1.70;;;;;;;;;;4162736;34;20138;-65
2022/05/14 02:36:28;;;;;;;3.62;1.80;;;;;;;;;;4162759;34;20214;-65
2022/05/14 02:38:54;;;;;;;2.60;1.45;;;;;;;;;;4162617;34;20211;-65
2022/05/14 02:41:20;;;;;;;3.80;1.67;;;;;;;;;;4162255;34;20510;-65
2022/05/14 02:43:46;;;;;;;3.22;1.90;;;;;;;;;;4150235;34;20514;-67
2022/05/14 02:46:12;;;;;;;4.30;1.92;;;;;;;;;;4162677;34;20463;-66
2022/05/14 02:48:38;;;;;;;2.00;1.77;;;;;;;;;;4150187;34;20119;-66
2022/05/14 02:51:05;;;;;;;2.87;1.70;;;;;;;;;;4150289;34;20149;-66
2022/05/14 02:53:31;;;;;;;2.83;2.15;;;;;;;;;;4163122;34;20118;-68
2022/05/14 02:55:57;;;;;;;1.48;1.35;;;;;;;;;;4162477;34;20111;-68
2022/05/14 03:01:08;;;;;;;4.87;1.70;;;;;;;;;;4162504;34;20098;-66
2022/05/14 03:03:34;;;;;;;3.17;1.70;;;;;;;;;;4162788;34;20099;-65
2022/05/14 03:06:00;;;;;;;2.22;1.70;;;;;;;;;;4162379;34;20218;-66
2022/05/14 03:08:27;;;;;;;5.32;2.70;;;;;;;;;;4162596;34;20102;-66
2022/05/14 03:10:53;;;;;;;5.65;1.65;;;;;;;;;;4149915;34;20448;-66
2022/05/14 03:13:19;;;;;;;7.72;1.58;;;;;;;;;;4163876;34;20099;-66
2022/05/14 03:15:45;;;;;;;4.57;1.80;;;;;;;;;;4164438;34;20106;-66
2022/05/14 03:18:11;;;;;;;3.85;1.50;;;;;;;;;;4164743;34;20106;-67
2022/05/14 03:20:37;;;;;;;1.65;1.42;;;;;;;;;;4164324;34;20505;-66
2022/05/14 03:23:03;;;;;;;4.90;1.60;;;;;;;;;;4164859;34;20192;-66
2022/05/14 03:25:29;;;;;;;6.32;1.90;;;;;;;;;;4164621;34;20118;-67
2022/05/14 03:27:55;;;;;;;4.28;2.30;;;;;;;;;;4164821;34;20522;-67
2022/05/14 03:30:21;;;;;;;5.95;1.70;;;;;;;;;;4164451;34;20156;-66
2022/05/14 03:32:47;;;;;;;3.50;1.60;;;;;;;;;;4164557;34;20119;-65
2022/05/14 03:35:13;;;;;;;3.30;2.10;;;;;;;;;;4164577;34;20197;-66
2022/05/14 03:37:39;;;;;;;2.53;1.52;;;;;;;;;;4164679;34;20129;-65
2022/05/14 03:40:07;;;;;;;3.33;1.90;;;;;;;;;;4164107;34;20471;-66
2022/05/14 03:42:33;;;;;;;8.30;1.67;;;;;;;;;;4151842;34;20099;-66
2022/05/14 03:44:59;;;;;;;4.93;1.77;;;;;;;;;;4164411;34;20102;-66
2022/05/14 03:47:25;;;;;;;3.28;1.60;;;;;;;;;;4164568;34;20140;-65
2022/05/14 03:49:51;;;;;;;4.05;1.62;;;;;;;;;;4164320;34;20126;-66
2022/05/14 03:52:17;;;;;;;4.12;1.90;;;;;;;;;;4164108;34;20110;-66
2022/05/14 03:54:45;;;;;;;3.53;1.48;;;;;;;;;;4164062;34;20543;-66
2022/05/14 03:57:12;;;;;;;3.45;1.90;;;;;;;;;;4164325;34;20102;-66
2022/05/14 03:59:38;;;;;;;5.10;1.70;;;;;;;;;;4164328;34;20126;-65
2022/05/14 04:02:04;;;;;;;2.78;1.52;;;;;;;;;;4164474;34;20122;-66
2022/05/14 04:04:31;;;;;;;2.70;1.70;;;;;;;;;;4164109;34;20512;-66
2022/05/14 04:06:57;;;;;;;2.25;1.58;;;;;;;;;;4164310;34;20194;-66
2022/05/14 04:09:23;;;;;;;5.12;1.80;;;;;;;;;;4151511;34;20203;-66
2022/05/14 04:11:50;;;;;;;2.60;1.40;;;;;;;;;;4164029;34;20122;-67
2022/05/14 04:14:15;;;;;;;4.10;1.85;;;;;;;;;;4164222;34;20193;-66
2022/05/14 04:16:41;;;;;;;4.25;1.75;;;;;;;;;;4163997;34;20154;-66
2022/05/14 04:19:07;;;;;;;3.25;1.90;;;;;;;;;;4151505;34;20102;-66
2022/05/14 04:21:33;;;;;;;4.03;1.40;;;;;;;;;;4164706;34;20110;-68
2022/05/14 04:24:00;;;;;;;8.25;1.80;;;;;;;;;;4151115;34;20187;-69
2022/05/14 04:26:26;;;;;;;4.00;1.95;;;;;;;;;;4164016;34;20573;-67
2022/05/14 04:28:52;;;;;;;4.95;1.87;;;;;;;;;;4164216;34;20095;-68
2022/05/14 04:31:21;;;;;;;4.10;1.80;;;;;;;;;;4164082;34;20198;-67
2022/05/14 04:33:47;;;;;;;3.70;1.85;;;;;;;;;;4163758;34;20125;-67
2022/05/14 04:36:14;;;;;;;5.70;1.75;;;;;;;;;;4150953;34;20543;-66
2022/05/14 04:38:40;;;;;;;8.73;2.35;;;;;;;;;;4163818;34;20223;-67
2022/05/14 04:41:06;;;;;;;4.22;1.60;;;;;;;;;;4150988;34;20122;-66
2022/05/14 04:43:33;;;;;;;18.30;2.05;;;;;;;;;;4164227;34;20111;-68
2022/05/14 04:45:59;;;;;;;4.53;1.60;;;;;;;;;;4139948;34;20187;-67
2022/05/14 04:48:25;;;;;;;4.72;1.75;;;;;;;;;;4163993;34;20130;-67
2022/05/14 04:50:51;;;;;;;5.37;1.70;;;;;;;;;;4150972;34;20106;-68
2022/05/14 04:53:17;;;;;;;2.65;1.92;;;;;;;;;;4162735;34;20474;-69
2022/05/14 04:55:43;;;;;;;6.37;1.70;;;;;;;;;;4161463;34;20129;-66
2022/05/14 04:58:09;;;;;;;7.43;1.70;;;;;;;;;;4161794;34;20134;-69
2022/05/14 05:00:37;;;;;;;4.85;1.70;;;;;;;;;;4161517;34;20628;-69
2022/05/14 05:03:22;;;;;;;3.62;1.90;;;;;;;;;;4161675;34;20133;-68
2022/05/14 05:05:52;;;;;;;3.78;1.77;;;;;;;;;;4150871;34;20122;-69
2022/05/14 05:08:18;;;;;;;13.38;2.08;;;;;;;;;;4162684;34;20591;-68
2022/05/14 05:10:45;;;;;;;13.32;2.83;;;;;;;;;;4163370;34;20095;-68
2022/05/14 05:13:19;;;;;;;2.60;1.70;;;;;;;;;;4163649;34;20203;-68
2022/05/14 05:15:45;;;;;;;8.55;2.42;;;;;;;;;;4150929;34;20091;-69
2022/05/14 05:18:11;;;;;;;4.72;1.62;;;;;;;;;;4163987;34;20121;-68
2022/05/14 05:20:39;;;;;;;11.43;2.55;;;;;;;;;;4150826;34;20121;-68
2022/05/14 05:23:06;;;;;;;6.65;1.92;;;;;;;;;;4151718;34;20182;-70
2022/05/14 05:25:32;;;;;;;14.60;2.45;;;;;;;;;;4139855;34;20219;-70
2022/05/14 05:27:58;;;;;;;6.97;2.00;;;;;;;;;;4163548;34;20137;-70
2022/05/14 05:30:25;;;;;;;10.10;2.10;;;;;;;;;;4150859;34;20114;-71
2022/05/14 05:32:51;;;;;;;9.40;2.17;;;;;;;;;;4163175;34;20131;-71
2022/05/14 05:35:17;;;;;;;3.50;1.52;;;;;;;;;;4163301;34;20177;-68
2022/05/14 05:37:44;;;;;;;12.50;2.53;;;;;;;;;;4163217;34;20115;-68
2022/05/14 05:40:11;;;;;;;4.47;1.80;;;;;;;;;;4150498;34;20091;-69
2022/05/14 05:42:37;;;;;;;11.63;2.00;;;;;;;;;;4150632;34;20129;-68
2022/05/14 05:45:03;;;;;;;5.87;1.55;;;;;;;;;;4163313;34;20122;-70
2022/05/14 05:47:29;;;;;;;2.85;1.70;;;;;;;;;;4163625;34;20122;-69
2022/05/14 05:49:55;;;;;;;6.95;1.62;;;;;;;;;;4163436;34;20091;-69
2022/05/14 05:52:21;;;;;;;7.60;3.35;;;;;;;;;;4163409;34;20512;-67
2022/05/14 05:57:37;;;;;;;2.17;1.33;;;;;;;;;;4152545;34;20099;-69
2022/05/14 06:00:05;;;;;;;1.35;1.25;;;;;;;;;;4163144;34;20123;-69
2022/05/14 06:02:31;;;;;;;13.10;1.70;;;;;;;;;;4163348;34;20114;-69
2022/05/14 06:04:57;;;;;;;2.20;1.62;;;;;;;;;;4150899;34;20106;-71
2022/05/14 06:07:23;;;;;;;1.75;1.30;;;;;;;;;;4163147;34;20204;-66
2022/05/14 06:09:49;;;;;;;5.55;1.77;;;;;;;;;;4162844;34;20130;-68
2022/05/14 06:12:15;;;;;;;12.20;2.53;;;;;;;;;;4163230;34;20609;-69
2022/05/14 06:14:42;;;;;;;10.32;1.95;;;;;;;;;;4162976;34;20122;-68
2022/05/14 06:17:08;;;;;;;2.30;1.50;;;;;;;;;;4163009;34;20117;-67
2022/05/14 06:19:34;;;;;;;2.45;1.37;;;;;;;;;;4163103;34;20107;-66
2022/05/14 06:22:02;;;;;;;2.10;1.70;;;;;;;;;;4162944;34;20130;-67
2022/05/14 06:24:28;;;;;;;1.95;1.50;;;;;;;;;;4162936;34;20130;-65
2022/05/14 06:26:54;;;;;;;7.10;2.03;;;;;;;;;;4162747;34;20122;-65
2022/05/14 06:29:21;;;;;;;2.78;1.60;;;;;;;;;;4162931;34;20113;-67
2022/05/14 06:31:48;;;;;;;7.65;1.80;;;;;;;;;;4162770;34;20200;-66
2022/05/14 06:34:15;;;;;;;3.47;2.15;;;;;;;;;;4163226;34;20110;-68
2022/05/14 06:36:41;;;;;;;1.95;1.50;;;;;;;;;;4162830;34;20215;-67
2022/05/14 06:39:07;;;;;;;2.60;1.90;;;;;;;;;;4162887;34;20218;-67
2022/05/14 06:41:33;;;;;;;15.35;2.85;;;;;;;;;;4162711;34;20528;-64
2022/05/14 06:43:59;;;;;;;8.68;1.60;;;;;;;;;;4162994;34;20241;-64
2022/05/14 06:46:25;;;;;;;4.53;1.80;;;;;;;;;;4163007;34;20205;-67
2022/05/14 06:48:51;;;;;;;1.40;1.30;;;;;;;;;;4164389;34;20202;-66
2022/05/14 06:51:21;;;;;;;1.83;1.37;;;;;;;;;;4165004;34;20109;-68
2022/05/14 06:53:48;;;;;;;11.45;2.05;;;;;;;;;;4140898;34;20083;-65
2022/05/14 06:56:15;;;;;;;3.05;1.55;;;;;;;;;;4164624;34;20110;-65
2022/05/14 06:58:42;;;;;;;3.25;1.83;;;;;;;;;;4152266;34;20523;-65
2022/05/14 07:01:09;;;;;;;4.18;1.65;;;;;;;;;;4164506;34;20099;-65
2022/05/14 07:06:40;;;;;;;4.68;1.70;;;;;;;;;;4164773;34;20447;-65
2022/05/14 07:09:11;;;;;;;6.72;2.15;;;;;;;;;;4164935;34;20098;-65
2022/05/14 07:11:37;;;;;;;3.72;1.33;;;;;;;;;;4140699;34;20210;-65
2022/05/14 07:14:04;;;;;;;6.47;2.10;;;;;;;;;;4164489;34;20215;-66
2022/05/14 07:16:31;;;;;;;3.12;1.77;;;;;;;;;;4151754;34;20464;-66
2022/05/14 07:18:57;;;;;;;2.10;1.80;;;;;;;;;;4151948;34;20100;-66
2022/05/14 07:21:23;;;;;;;4.15;1.73;;;;;;;;;;4164301;34;20132;-61
2022/05/14 07:23:49;;;;;;;4.07;1.58;;;;;;;;;;4164360;34;20174;-64
2022/05/14 07:26:15;;;;;;;5.85;1.75;;;;;;;;;;4164316;34;20723;-62
2022/05/14 07:28:41;;;;;;;3.92;1.67;;;;;;;;;;4151722;34;20098;-61
2022/05/14 07:31:08;;;;;;;4.65;1.37;;;;;;;;;;4164300;34;20099;-62
2022/05/14 07:33:36;;;;;;;1.85;1.55;;;;;;;;;;4164198;34;20090;-62
2022/05/14 07:36:05;;;;;;;4.80;1.40;;;;;;;;;;4151738;34;20146;-62
2022/05/14 07:38:34;;;;;;;7.00;1.60;;;;;;;;;;4164219;34;20106;-63
2022/05/14 07:41:01;;;;;;;3.72;1.60;;;;;;;;;;4140213;34;20130;-64
2022/05/14 07:43:31;;;;;;;1.95;1.37;;;;;;;;;;4164364;34;20210;-64
2022/05/14 07:46:02;;;;;;;7.93;1.80;;;;;;;;;;4151985;34;20125;-65
2022/05/14 07:48:32;;;;;;;4.78;1.40;;;;;;;;;;4151791;34;20110;-64
2022/05/14 07:50:59;;;;;;;1.90;1.20;;;;;;;;;;4151789;34;20123;-68
2022/05/14 07:53:30;;;;;;;1.65;1.17;;;;;;;;;;4152064;34;20440;-68
2022/05/14 07:56:06;;;;;;;3.62;1.55;;;;;;;;;;4164620;34;20105;-67
2022/05/14 07:58:32;;;;;;;2.87;1.70;;;;;;;;;;4140327;34;20143;-70
2022/05/14 08:00:59;;;;;;;3.45;1.58;;;;;;;;;;4151211;34;20103;-68
2022/05/14 08:03:26;;;;;;;2.95;1.40;;;;;;;;;;4164506;34;20106;-67
2022/05/14 08:05:55;;;;;;;2.70;1.70;;;;;;;;;;4164112;34;20110;-67
2022/05/14 08:08:21;;;;;;;1.42;1.33;;;;;;;;;;4164151;34;20114;-67
2022/05/14 08:10:54;;;;;;;2.00;1.62;;;;;;;;;;4164043;34;20808;-66
2022/05/14 08:13:22;;;;;;;3.70;1.60;;;;;;;;;;4140014;34;20122;-66
2022/05/14 08:15:49;;;;;;;2.42;0.98;;;;;;;;;;4151388;34;20546;-68
2022/05/14 08:18:16;;;;;;;2.50;1.35;;;;;;;;;;4151376;34;20114;-66
2022/05/14 08:20:44;;;;;;;2.47;1.55;;;;;;;;;;4163948;34;20121;-69
2022/05/14 08:25:56;;;;;;;3.83;1.48;;;;;;;;;;4141804;34;20103;-66
2022/05/14 08:28:22;;;;;;;2.72;1.48;;;;;;;;;;4164197;34;20550;-66
2022/05/14 08:30:49;;;;;;;6.97;1.50;;;;;;;;;;4163793;34;20199;-65
2022/05/14 08:33:15;;;;;;;5.22;1.77;;;;;;;;;;4139946;34;20141;-65
2022/05/14 08:35:42;;;;;;;5.97;1.60;;;;;;;;;;4164049;34;20111;-65
2022/05/14 08:38:13;;;;;;;1.70;1.50;;;;;;;;;;4164044;34;20106;-67
2022/05/14 08:40:50;;;;;;;3.87;1.70;;;;;;;;;;4163950;34;20741;-72
2022/05/14 08:43:19;;;;;;;2.60;1.73;;;;;;;;;;4164166;34;20130;-68
2022/05/14 08:45:45;;;;;;;7.15;1.87;;;;;;;;;;4162134;34;20206;-69
2022/05/14 08:48:16;;;;;;;2.12;1.42;;;;;;;;;;4150098;34;20237;-68
2022/05/14 08:50:43;;;;;;;10.13;1.80;;;;;;;;;;4163755;34;20114;-69
2022/05/14 08:53:12;;;;;;;1.80;1.70;;;;;;;;;;4163729;34;20130;-67
2022/05/14 08:55:54;;;;;;;5.72;2.40;;;;;;;;;;4151178;34;20563;-67
2022/05/14 08:58:45;;;;;;;2.33;1.70;;;;;;;;;;4139819;34;20531;-69
2022/05/14 09:01:15;;;;;;;3.87;1.35;;;;;;;;;;4163797;34;20107;-67
2022/05/14 09:03:45;;;;;;;2.30;1.70;;;;;;;;;;4150988;34;20119;-66
2022/05/14 09:06:11;;;;;;;3.55;1.95;;;;;;;;;;4151109;34;20130;-68
2022/05/14 09:08:37;;;;;;;3.42;2.00;;;;;;;;;;4163876;34;20137;-69
2022/05/14 09:11:11;;;;;;;8.32;1.92;;;;;;;;;;4163462;34;20091;-73
2022/05/14 09:13:46;;;;;;;7.77;1.83;;;;;;;;;;4140302;34;20114;-69
2022/05/14 09:16:38;;;;;;;4.55;2.87;;;;;;;;;;4150960;34;20122;-68
2022/05/14 09:19:19;;;;;;;5.25;3.45;;;;;;;;;;4148963;34;20098;-69
2022/05/14 09:21:51;;;;;;;6.82;3.78;;;;;;;;;;4151055;34;20661;-67
2022/05/14 09:24:24;;;;;;;4.60;2.83;;;;;;;;;;4163920;34;20101;-65
2022/05/14 09:26:50;;;;;;;3.62;2.05;;;;;;;;;;4151238;34;20205;-67
2022/05/14 09:29:33;;;;;;;2.37;1.65;;;;;;;;;;4163556;34;20524;-67
2022/05/14 09:32:04;;;;;;;5.62;1.90;;;;;;;;;;4150831;34;20123;-68
2022/05/14 09:34:33;;;;;;;3.33;2.10;;;;;;;;;;4163751;34;20113;-66
2022/05/14 09:37:21;;;;;;;5.45;2.78;;;;;;;;;;4163461;34;20123;-66
2022/05/14 09:39:58;;;;;;;6.35;3.20;;;;;;;;;;4163407;34;20131;-66
2022/05/14 09:42:26;;;;;;;8.30;3.05;;;;;;;;;;4163424;34;20188;-68
2022/05/14 09:44:54;;;;;;;3.83;2.97;;;;;;;;;;4163352;34;20104;-68
2022/05/14 09:47:30;;;;;;;3.42;2.00;;;;;;;;;;4163376;34;20122;-68
2022/05/14 09:50:03;;;;;;;1.83;1.70;;;;;;;;;;4163448;34;20131;-68
2022/05/14 09:52:32;;;;;;;3.28;1.80;;;;;;;;;;4139395;34;20454;-67
2022/05/14 09:55:01;;;;;;;3.15;1.17;;;;;;;;;;4151159;34;20109;-71
2022/05/14 09:57:36;;;;;;;5.93;1.65;;;;;;;;;;4150822;34;20098;-70
2022/05/14 10:00:08;;;;;;;6.28;1.77;;;;;;;;;;4163171;34;20111;-67
2022/05/14 10:02:57;;;;;;;1.58;1.30;;;;;;;;;;4150672;34;20141;-65
2022/05/14 10:06:00;;;;;;;2.78;1.73;;;;;;;;;;4150824;34;20137;-68
2022/05/14 10:08:51;;;;;;;4.93;1.65;;;;;;;;;;4163209;34;20185;-65
2022/05/14 10:11:21;;;;;;;3.47;1.70;;;;;;;;;;4163015;34;20126;-67
2022/05/14 10:14:16;;;;;;;3.40;1.77;;;;;;;;;;4150731;34;20219;-65
2022/05/14 10:16:52;;;;;;;6.53;2.03;;;;;;;;;;4162797;34;20094;-63
2022/05/14 10:19:39;;;;;;;4.53;2.40;;;;;;;;;;4150680;34;20141;-65
2022/05/14 10:26:44;;;;;;;3.60;2.08;;;;;;;;;;4163107;34;20185;-68
2022/05/14 10:28:12;;;;;;;1.48;1.37;;;;;;;;;;4154389;34;20583;-63
2022/05/14 10:30:57;;;;;;;2.00;1.50;;;;;;;;;;4152347;34;20113;-63
2022/05/14 10:33:25;;;;;;;2.25;1.45;;;;;;;;;;4164926;34;20526;-63
2022/05/14 10:35:58;;;;;;;1.20;1.10;;;;;;;;;;4152159;34;20107;-65
2022/05/14 10:38:34;;;;;;;1.20;1.20;;;;;;;;;;4152385;34;20204;-65
2022/05/14 10:41:03;;;;;;;1.73;1.30;;;;;;;;;;4164908;34;20121;-66
2022/05/14 10:43:59;;;;;;;7.57;2.72;;;;;;;;;;4152278;34;20119;-65
2022/05/14 10:46:27;;;;;;;5.62;2.80;;;;;;;;;;4165108;34;20107;-66
2022/05/14 10:49:13;;;;;;;4.72;1.52;;;;;;;;;;4152266;34;20498;-69
2022/05/14 10:51:48;;;;;;;2.33;1.73;;;;;;;;;;4152230;34;20589;-65
2022/05/14 10:54:19;;;;;;;3.65;1.77;;;;;;;;;;4164863;34;20198;-65
2022/05/14 10:56:57;;;;;;;1.50;1.40;;;;;;;;;;4164916;34;20182;-64
2022/05/14 10:59:36;;;;;;;1.75;1.65;;;;;;;;;;4152080;34;20095;-67
2022/05/14 11:02:06;;;;;;;5.40;2.20;;;;;;;;;;4164734;34;20114;-64
2022/05/14 11:04:43;;;;;;;2.67;1.80;;;;;;;;;;4152055;34;20214;-66
2022/05/14 11:07:10;;;;;;;6.25;2.50;;;;;;;;;;4164693;34;20115;-63
2022/05/14 11:09:38;;;;;;;2.58;1.50;;;;;;;;;;4152243;34;20181;-64
2022/05/14 11:12:19;;;;;;;2.17;1.62;;;;;;;;;;4164616;34;20448;-63
2022/05/14 11:14:53;;;;;;;5.12;1.67;;;;;;;;;;4164770;34;20118;-65
2022/05/14 11:17:29;;;;;;;1.40;1.30;;;;;;;;;;4151915;34;20124;-63
2022/05/14 11:20:16;;;;;;;4.03;1.60;;;;;;;;;;4164541;34;20519;-63
2022/05/14 11:22:50;;;;;;;9.07;2.20;;;;;;;;;;4164423;34;20130;-63
2022/05/14 11:25:16;;;;;;;1.23;1.12;;;;;;;;;;4152115;34;20119;-63
2022/05/14 11:27:59;;;;;;;0.90;0.90;;;;;;;;;;4151011;34;20534;-64
2022/05/14 11:30:34;;;;;;;4.80;1.20;;;;;;;;;;4150840;34;20178;-64
2022/05/14 11:33:00;;;;;;;1.00;1.00;;;;;;;;;;4156474;34;20106;-64
2022/05/14 11:35:46;;;;;;;1.50;1.33;;;;;;;;;;4164387;34;20113;-65
2022/05/14 11:38:33;;;;;;;1.15;1.10;;;;;;;;;;4164288;34;20523;-64
2022/05/14 11:41:32;;;;;;;5.35;1.90;;;;;;;;;;4164121;34;20541;-64
2022/05/14 11:43:58;;;;;;;2.58;1.70;;;;;;;;;;4142782;34;20099;-64
2022/05/14 11:46:28;;;;;;;5.00;1.75;;;;;;;;;;4164197;34;20448;-61
2022/05/14 11:49:10;;;;;;;1.40;1.30;;;;;;;;;;4164138;34;20106;-62
2022/05/14 11:51:38;;;;;;;4.75;2.33;;;;;;;;;;4151708;34;20536;-62
2022/05/14 11:54:55;;;;;;;5.50;1.77;;;;;;;;;;4164030;34;20119;-62
2022/05/14 11:57:32;;;;;;;2.20;1.42;;;;;;;;;;4146478;34;20130;-68
2022/05/14 12:00:09;;;;;;;3.05;1.62;;;;;;;;;;4151867;34;20140;-64
2022/05/14 12:02:37;;;;;;;3.92;1.52;;;;;;;;;;4164185;34;20130;-68
2022/05/14 12:05:07;;;;;;;2.55;2.00;;;;;;;;;;4164356;34;20118;-69
2022/05/14 12:08:03;;;;;;;7.18;1.95;;;;;;;;;;4151650;34;20142;-63
2022/05/14 12:10:45;;;;;;;5.53;1.67;;;;;;;;;;4164239;34;20130;-64
2022/05/14 12:13:39;;;;;;;6.25;1.80;;;;;;;;;;4151350;34;20111;-63
2022/05/14 12:16:05;;;;;;;2.47;1.62;;;;;;;;;;4151556;34;20102;-62
2022/05/14 12:18:32;;;;;;;7.15;2.25;;;;;;;;;;4164151;34;20143;-63
2022/05/14 12:21:04;;;;;;;4.00;1.83;;;;;;;;;;4164015;34;20523;-62
2022/05/14 12:23:36;;;;;;;4.68;1.83;;;;;;;;;;4164033;34;20537;-63
2022/05/14 12:26:19;;;;;;;2.37;1.60;;;;;;;;;;4163934;34;20115;-65
2022/05/14 12:28:45;;;;;;;3.30;1.58;;;;;;;;;;4163892;34;20174;-61
2022/05/14 12:34:00;;;;;;;2.25;1.80;;;;;;;;;;4163603;34;20117;-63
2022/05/14 12:36:28;;;;;;;5.30;2.22;;;;;;;;;;4163843;34;20539;-63
2022/05/14 12:38:55;;;;;;;4.32;2.03;;;;;;;;;;4164003;34;20115;-64
2022/05/14 12:41:32;;;;;;;2.25;1.20;;;;;;;;;;4151040;34;20132;-63
2022/05/14 12:44:06;;;;;;;9.90;2.35;;;;;;;;;;4163683;34;20114;-63
2022/05/14 12:46:37;;;;;;;6.15;1.90;;;;;;;;;;4163182;34;20111;-65
2022/05/14 12:49:05;;;;;;;2.28;1.27;;;;;;;;;;4163805;34;20111;-64
2022/05/14 12:51:31;;;;;;;1.50;1.40;;;;;;;;;;4163775;34;20103;-64
2022/05/14 12:53:57;;;;;;;8.93;2.60;;;;;;;;;;4163677;34;20109;-62
2022/05/14 12:56:28;;;;;;;5.70;1.85;;;;;;;;;;4163824;34;20696;-61
2022/05/14 12:58:54;;;;;;;3.60;1.92;;;;;;;;;;4150979;34;20213;-62
2022/05/14 13:01:22;;;;;;;4.00;2.20;;;;;;;;;;4150762;34;20123;-62
2022/05/14 13:03:59;;;;;;;4.18;1.67;;;;;;;;;;4163738;34;20114;-62
2022/05/14 13:06:32;;;;;;;5.05;2.15;;;;;;;;;;4163789;34;20532;-62
2022/05/14 13:09:05;;;;;;;5.25;2.20;;;;;;;;;;4163527;34;20327;-64
2022/05/14 13:11:33;;;;;;;7.00;1.90;;;;;;;;;;4151321;34;20551;-62
2022/05/14 13:14:29;;;;;;;4.30;1.70;;;;;;;;;;4150910;34;20122;-64
2022/05/14 13:17:06;;;;;;;3.78;1.75;;;;;;;;;;4142626;34;20327;-64
2022/05/14 13:19:41;;;;;;;5.50;1.98;;;;;;;;;;4163468;34;20439;-63
2022/05/14 13:22:29;;;;;;;6.90;1.80;;;;;;;;;;4150692;34;20114;-62
2022/05/14 13:24:56;;;;;;;5.28;2.12;;;;;;;;;;4162897;34;20106;-63
2022/05/14 13:27:34;;;;;;;7.28;2.00;;;;;;;;;;4150430;34;20498;-62
2022/05/14 13:30:10;;;;;;;3.28;1.77;;;;;;;;;;4163383;34;20114;-62
2022/05/14 13:32:36;;;;;;;4.03;1.80;;;;;;;;;;4163569;34;20123;-62
2022/05/14 13:37:54;;;;;;;7.30;1.90;;;;;;;;;;4152591;34;20243;-63
2022/05/14 13:40:31;;;;;;;4.43;2.75;;;;;;;;;;4139485;34;20122;-63
2022/05/14 13:42:59;;;;;;;6.85;2.10;;;;;;;;;;4163164;34;20111;-63
2022/05/14 13:45:34;;;;;;;7.10;2.25;;;;;;;;;;4150624;34;20598;-63
2022/05/14 13:48:03;;;;;;;3.15;1.75;;;;;;;;;;4163297;34;20227;-62
2022/05/14 13:50:41;;;;;;;8.95;2.33;;;;;;;;;;4163228;34;20110;-62
2022/05/14 13:53:24;;;;;;;4.32;1.75;;;;;;;;;;4150783;34;20528;-62
2022/05/14 13:56:03;;;;;;;8.15;2.10;;;;;;;;;;4163089;34;20526;-63
2022/05/14 13:58:31;;;;;;;6.43;1.70;;;;;;;;;;4163218;34;20095;-60
2022/05/14 14:01:04;;;;;;;3.85;1.98;;;;;;;;;;4150637;34;20170;-59
2022/05/14 14:03:51;;;;;;;4.20;1.65;;;;;;;;;;4163002;34;20133;-60
2022/05/14 14:06:18;;;;;;;5.25;1.85;;;;;;;;;;4150597;34;20099;-62
2022/05/14 14:08:44;;;;;;;6.25;1.73;;;;;;;;;;4163077;34;20122;-63
2022/05/14 14:11:11;;;;;;;2.80;1.60;;;;;;;;;;4162851;34;20605;-63
2022/05/14 14:13:38;;;;;;;4.68;1.67;;;;;;;;;;4162840;34;20114;-63
2022/05/14 14:16:04;;;;;;;5.72;1.90;;;;;;;;;;4163154;34;20114;-63
2022/05/14 14:18:30;;;;;;;2.03;1.20;;;;;;;;;;4150469;34;20090;-61
2022/05/14 14:20:59;;;;;;;8.20;1.83;;;;;;;;;;4162840;34;20094;-62
2022/05/14 14:23:27;;;;;;;5.20;1.77;;;;;;;;;;4162970;34;20106;-64
2022/05/14 14:25:53;;;;;;;3.75;1.50;;;;;;;;;;4150265;34;20160;-64
2022/05/14 14:28:19;;;;;;;5.47;1.90;;;;;;;;;;4162853;34;20118;-63
2022/05/14 14:30:47;;;;;;;2.62;1.70;;;;;;;;;;4162932;34;20091;-62
2022/05/14 14:33:13;;;;;;;4.45;1.85;;;;;;;;;;4150413;34;20143;-62
2022/05/14 14:35:42;;;;;;;10.13;2.42;;;;;;;;;;4150421;34;20440;-64
2022/05/14 14:38:09;;;;;;;3.58;1.90;;;;;;;;;;4162717;34;20106;-63
2022/05/14 14:40:36;;;;;;;2.03;1.65;;;;;;;;;;4162545;34;20117;-64
2022/05/14 14:43:02;;;;;;;6.43;2.00;;;;;;;;;;4162745;34;20122;-65
2022/05/14 14:45:29;;;;;;;4.22;1.90;;;;;;;;;;4162698;34;20097;-65
2022/05/14 14:47:55;;;;;;;4.72;1.98;;;;;;;;;;4162770;34;20108;-62
2022/05/14 14:50:24;;;;;;;2.97;1.95;;;;;;;;;;4162875;34;20229;-61
2022/05/14 14:52:50;;;;;;;12.52;2.53;;;;;;;;;;4149824;34;20551;-62
2022/05/14 14:55:16;;;;;;;7.10;2.28;;;;;;;;;;4162619;34;20117;-64
2022/05/14 14:57:43;;;;;;;6.53;2.37;;;;;;;;;;4162672;34;20106;-62
2022/05/14 15:00:12;;;;;;;8.45;2.92;;;;;;;;;;4162665;34;20201;-63
2022/05/14 15:02:56;;;;;;;6.18;2.80;;;;;;;;;;4162607;34;20198;-62
2022/05/14 15:05:26;;;;;;;8.82;3.33;;;;;;;;;;4149908;34;20122;-63
2022/05/14 15:07:52;;;;;;;8.38;2.45;;;;;;;;;;4149971;34;20134;-63
2022/05/14 15:10:18;;;;;;;5.10;2.87;;;;;;;;;;4151777;34;20218;-62
2022/05/14 15:12:45;;;;;;;15.90;2.22;;;;;;;;;;4152276;34;20115;-62
2022/05/14 15:15:12;;;;;;;5.97;2.67;;;;;;;;;;4164578;34;20138;-62
2022/05/14 15:17:38;;;;;;;14.87;2.95;;;;;;;;;;4151757;34;20122;-61
2022/05/14 15:20:06;;;;;;;18.35;3.85;;;;;;;;;;4164434;34;20585;-62
2022/05/14 15:22:33;;;;;;;15.98;2.85;;;;;;;;;;4164367;34;20095;-62
2022/05/14 15:25:00;;;;;;;11.00;2.50;;;;;;;;;;4164490;34;20156;-62
2022/05/14 15:27:26;;;;;;;10.60;2.37;;;;;;;;;;4164456;34;20118;-63
2022/05/14 15:29:54;;;;;;;4.72;2.37;;;;;;;;;;4164431;34;20115;-63
2022/05/14 15:32:21;;;;;;;11.52;6.55;;;;;;;;;;4164217;34;20142;-62
2022/05/14 15:34:48;;;;;;;20.02;8.02;;;;;;;;;;4164167;34;20106;-62
2022/05/14 15:37:17;;;;;;;17.95;7.00;;;;;;;;;;4164487;34;20107;-62
2022/05/14 15:39:42;;;;;;;21.20;7.18;;;;;;;;;;4164311;34;20118;-62
2022/05/14 15:42:10;;;;;;;16.33;6.60;;;;;;;;;;4164089;34;20206;-62
2022/05/14 15:44:47;;;;;;;16.83;5.07;;;;;;;;;;4151542;34;20149;-62
2022/05/14 15:47:16;;;;;;;13.62;4.47;;;;;;;;;;4164255;34;20210;-62
2022/05/14 15:49:45;;;;;;;8.52;2.90;;;;;;;;;;4164257;34;20439;-62
2022/05/14 15:52:12;;;;;;;13.25;2.97;;;;;;;;;;4151134;34;20130;-62